sensor_id;sensor_type;location;lat;lon;timestamp;pressure;altitude;pressure_sealevel;temperature;humidity
49709;BME280;35601;55.902;13.606;2023-02-13T00:01:21;102404.35;;;2.11;80.16
49709;BME280;35601;55.902;13.606;2023-02-13T00:03:46;102401.02;;;2.11;80.39
49709;BME280;35601;55.902;13.606;2023-02-13T00:06:11;102401.91;;;2.05;80.48
49709;BME280;35601;55.902;13.606;2023-02-13T00:08:37;102401.28;;;2.34;80.27
49709;BME280;35601;55.902;13.606;2023-02-13T00:11:02;102399.50;;;2.14;80.66
49709;BME280;35601;55.902;13.606;2023-02-13T00:13:27;102400.80;;;2.40;80.45
49709;BME280;35601;55.902;13.606;2023-02-13T00:15:56;102404.02;;;2.18;80.38
49709;BME280;35601;55.902;13.606;2023-02-13T00:18:19;102399.16;;;2.46;80.63
49709;BME280;35601;55.902;13.606;2023-02-13T00:20:44;102397.67;;;2.24;80.13
49709;BME280;35601;55.902;13.606;2023-02-13T00:23:09;102387.80;;;2.28;79.89
49709;BME280;35601;55.902;13.606;2023-02-13T00:25:34;102392.18;;;2.44;79.73
49709;BME280;35601;55.902;13.606;2023-02-13T00:28:00;102388.77;;;2.43;79.95
49709;BME280;35601;55.902;13.606;2023-02-13T00:30:25;102388.70;;;2.22;79.85
49709;BME280;35601;55.902;13.606;2023-02-13T00:32:50;102392.97;;;2.19;79.30
49709;BME280;35601;55.902;13.606;2023-02-13T00:35:16;102389.76;;;2.12;78.58
49709;BME280;35601;55.902;13.606;2023-02-13T00:37:41;102383.01;;;2.11;78.56
49709;BME280;35601;55.902;13.606;2023-02-13T00:40:07;102378.64;;;2.06;78.59
49709;BME280;35601;55.902;13.606;2023-02-13T00:42:32;102374.45;;;2.22;78.76
49709;BME280;35601;55.902;13.606;2023-02-13T00:44:57;102377.27;;;2.15;78.80
49709;BME280;35601;55.902;13.606;2023-02-13T00:47:22;102375.30;;;2.08;79.93
49709;BME280;35601;55.902;13.606;2023-02-13T00:49:48;102373.49;;;2.30;79.90
49709;BME280;35601;55.902;13.606;2023-02-13T00:52:13;102370.96;;;2.01;79.66
49709;BME280;35601;55.902;13.606;2023-02-13T00:54:38;102365.19;;;2.01;79.83
49709;BME280;35601;55.902;13.606;2023-02-13T00:57:04;102363.81;;;1.94;79.10
49709;BME280;35601;55.902;13.606;2023-02-13T00:59:29;102372.74;;;1.61;79.32
49709;BME280;35601;55.902;13.606;2023-02-13T01:01:54;102367.47;;;2.06;79.47
49709;BME280;35601;55.902;13.606;2023-02-13T01:04:20;102365.48;;;1.78;79.31
49709;BME280;35601;55.902;13.606;2023-02-13T01:06:45;102371.30;;;1.70;79.43
49709;BME280;35601;55.902;13.606;2023-02-13T01:09:10;102373.54;;;1.68;79.11
49709;BME280;35601;55.902;13.606;2023-02-13T01:11:36;102374.99;;;1.84;79.11
49709;BME280;35601;55.902;13.606;2023-02-13T01:14:02;102367.80;;;1.86;79.04
49709;BME280;35601;55.902;13.606;2023-02-13T01:16:27;102373.08;;;1.71;78.76
49709;BME280;35601;55.902;13.606;2023-02-13T01:18:52;102375.21;;;1.72;78.49
49709;BME280;35601;55.902;13.606;2023-02-13T01:21:19;102368.57;;;1.67;78.58
49709;BME280;35601;55.902;13.606;2023-02-13T01:23:43;102368.44;;;1.34;78.63
49709;BME280;35601;55.902;13.606;2023-02-13T01:26:14;102361.40;;;1.48;79.12
49709;BME280;35601;55.902;13.606;2023-02-13T01:28:33;102356.85;;;1.49;79.41
49709;BME280;35601;55.902;13.606;2023-02-13T01:30:59;102355.00;;;1.24;79.07
49709;BME280;35601;55.902;13.606;2023-02-13T01:33:26;102356.85;;;1.38;79.60
49709;BME280;35601;55.902;13.606;2023-02-13T01:35:50;102354.03;;;0.28;79.26
49709;BME280;35601;55.902;13.606;2023-02-13T01:38:15;102352.15;;;1.60;78.62
49709;BME280;35601;55.902;13.606;2023-02-13T01:40:44;102350.54;;;1.25;78.55
49709;BME280;35601;55.902;13.606;2023-02-13T01:43:08;102348.87;;;1.37;78.56
49709;BME280;35601;55.902;13.606;2023-02-13T01:45:31;102341.54;;;1.05;78.66
49709;BME280;35601;55.902;13.606;2023-02-13T01:47:58;102345.44;;;1.19;78.78
49709;BME280;35601;55.902;13.606;2023-02-13T01:50:24;102352.27;;;0.90;80.31
49709;BME280;35601;55.902;13.606;2023-02-13T01:52:50;102351.93;;;1.44;80.39
49709;BME280;35601;55.902;13.606;2023-02-13T01:55:13;102347.39;;;0.87;80.02
49709;BME280;35601;55.902;13.606;2023-02-13T01:57:38;102351.21;;;0.77;81.38
49709;BME280;35601;55.902;13.606;2023-02-13T02:00:09;102351.35;;;1.20;83.12
49709;BME280;35601;55.902;13.606;2023-02-13T02:02:30;102347.35;;;0.71;83.22
49709;BME280;35601;55.902;13.606;2023-02-13T02:04:55;102347.96;;;0.65;84.65
49709;BME280;35601;55.902;13.606;2023-02-13T02:07:22;102349.05;;;1.10;85.08
49709;BME280;35601;55.902;13.606;2023-02-13T02:09:45;102347.44;;;1.11;85.69
49709;BME280;35601;55.902;13.606;2023-02-13T02:12:17;102343.90;;;0.94;85.40
49709;BME280;35601;55.902;13.606;2023-02-13T02:14:36;102350.17;;;1.13;87.57
49709;BME280;35601;55.902;13.606;2023-02-13T02:17:02;102347.81;;;0.73;87.80
49709;BME280;35601;55.902;13.606;2023-02-13T02:19:35;102350.13;;;1.04;87.37
49709;BME280;35601;55.902;13.606;2023-02-13T02:22:18;102351.67;;;1.07;87.76
49709;BME280;35601;55.902;13.606;2023-02-13T02:24:38;102352.93;;;1.39;87.50
49709;BME280;35601;55.902;13.606;2023-02-13T02:26:59;102351.48;;;1.43;87.69
49709;BME280;35601;55.902;13.606;2023-02-13T02:34:09;102351.54;;;1.22;88.46
49709;BME280;35601;55.902;13.606;2023-02-13T02:36:35;102351.04;;;1.46;88.29
49709;BME280;35601;55.902;13.606;2023-02-13T02:39:02;102349.26;;;1.60;87.81
49709;BME280;35601;55.902;13.606;2023-02-13T02:41:25;102349.54;;;1.16;87.60
49709;BME280;35601;55.902;13.606;2023-02-13T02:43:51;102343.08;;;1.71;87.40
49709;BME280;35601;55.902;13.606;2023-02-13T02:46:12;102347.84;;;1.25;87.22
49709;BME280;35601;55.902;13.606;2023-02-13T02:48:41;102344.61;;;1.25;87.04
49709;BME280;35601;55.902;13.606;2023-02-13T02:51:18;102345.87;;;1.51;86.70
49709;BME280;35601;55.902;13.606;2023-02-13T02:53:30;102345.49;;;1.19;86.88
49709;BME280;35601;55.902;13.606;2023-02-13T02:55:53;102346.97;;;1.36;86.56
49709;BME280;35601;55.902;13.606;2023-02-13T02:58:19;102346.47;;;1.82;86.18
49709;BME280;35601;55.902;13.606;2023-02-13T03:00:41;102347.12;;;1.39;85.45
49709;BME280;35601;55.902;13.606;2023-02-13T03:03:08;102345.21;;;1.45;85.54
49709;BME280;35601;55.902;13.606;2023-02-13T03:05:33;102344.77;;;1.52;85.14
49709;BME280;35601;55.902;13.606;2023-02-13T03:07:56;102344.78;;;1.45;85.58
49709;BME280;35601;55.902;13.606;2023-02-13T03:10:27;102341.18;;;2.04;84.66
49709;BME280;35601;55.902;13.606;2023-02-13T03:12:51;102343.19;;;1.58;84.41
49709;BME280;35601;55.902;13.606;2023-02-13T03:15:13;102345.28;;;1.61;84.41
49709;BME280;35601;55.902;13.606;2023-02-13T03:17:39;102344.07;;;1.52;84.98
49709;BME280;35601;55.902;13.606;2023-02-13T03:20:13;102341.39;;;1.53;84.39
49709;BME280;35601;55.902;13.606;2023-02-13T03:22:36;102340.61;;;1.59;84.39
49709;BME280;35601;55.902;13.606;2023-02-13T03:25:04;102340.77;;;1.63;83.85
49709;BME280;35601;55.902;13.606;2023-02-13T03:27:30;102343.99;;;1.54;83.01
49709;BME280;35601;55.902;13.606;2023-02-13T03:29:51;102344.91;;;1.58;83.06
49709;BME280;35601;55.902;13.606;2023-02-13T03:32:19;102345.14;;;1.59;82.86
49709;BME280;35601;55.902;13.606;2023-02-13T03:34:38;102348.84;;;1.58;82.68
49709;BME280;35601;55.902;13.606;2023-02-13T03:37:02;102348.74;;;1.51;83.02
49709;BME280;35601;55.902;13.606;2023-02-13T03:39:37;102348.96;;;1.55;82.78
49709;BME280;35601;55.902;13.606;2023-02-13T03:41:56;102347.44;;;1.54;82.32
49709;BME280;35601;55.902;13.606;2023-02-13T03:44:21;102348.02;;;1.50;81.81
49709;BME280;35601;55.902;13.606;2023-02-13T03:46:45;102349.37;;;1.50;81.49
49709;BME280;35601;55.902;13.606;2023-02-13T03:49:12;102351.76;;;1.47;81.60
49709;BME280;35601;55.902;13.606;2023-02-13T03:51:37;102355.00;;;1.44;81.56
49709;BME280;35601;55.902;13.606;2023-02-13T03:54:00;102357.88;;;1.46;81.17
49709;BME280;35601;55.902;13.606;2023-02-13T03:56:25;102354.36;;;1.29;80.98
49709;BME280;35601;55.902;13.606;2023-02-13T03:58:51;102353.84;;;1.31;81.36
49709;BME280;35601;55.902;13.606;2023-02-13T04:01:17;102353.82;;;1.30;81.13
49709;BME280;35601;55.902;13.606;2023-02-13T04:03:45;102354.78;;;0.98;81.05
49709;BME280;35601;55.902;13.606;2023-02-13T04:06:10;102358.05;;;1.24;80.72
49709;BME280;35601;55.902;13.606;2023-02-13T04:08:32;102358.28;;;1.18;80.65
49709;BME280;35601;55.902;13.606;2023-02-13T04:11:02;102352.52;;;1.18;80.61
49709;BME280;35601;55.902;13.606;2023-02-13T04:13:26;102354.45;;;0.93;80.83
49709;BME280;35601;55.902;13.606;2023-02-13T04:15:52;102352.95;;;1.14;80.75
49709;BME280;35601;55.902;13.606;2023-02-13T04:18:16;102349.11;;;1.09;80.59
49709;BME280;35601;55.902;13.606;2023-02-13T04:20:39;102346.09;;;1.01;80.63
49709;BME280;35601;55.902;13.606;2023-02-13T04:23:05;102347.81;;;1.01;80.41
49709;BME280;35601;55.902;13.606;2023-02-13T04:25:29;102357.00;;;0.97;80.25
49709;BME280;35601;55.902;13.606;2023-02-13T04:27:54;102358.87;;;0.93;80.24
49709;BME280;35601;55.902;13.606;2023-02-13T04:30:20;102359.88;;;0.85;80.41
49709;BME280;35601;55.902;13.606;2023-02-13T04:32:45;102365.43;;;0.75;80.62
49709;BME280;35601;55.902;13.606;2023-02-13T04:35:10;102363.71;;;0.58;81.69
49709;BME280;35601;55.902;13.606;2023-02-13T04:37:35;102361.37;;;0.90;81.30
49709;BME280;35601;55.902;13.606;2023-02-13T04:40:01;102365.14;;;1.11;81.08
49709;BME280;35601;55.902;13.606;2023-02-13T04:42:26;102365.63;;;1.08;80.97
49709;BME280;35601;55.902;13.606;2023-02-13T04:44:51;102365.22;;;1.09;81.10
49709;BME280;35601;55.902;13.606;2023-02-13T04:47:17;102362.39;;;1.07;81.50
49709;BME280;35601;55.902;13.606;2023-02-13T04:49:42;102357.65;;;1.00;82.11
49709;BME280;35601;55.902;13.606;2023-02-13T04:52:07;102353.16;;;0.75;82.19
49709;BME280;35601;55.902;13.606;2023-02-13T04:54:33;102352.15;;;0.68;83.51
49709;BME280;35601;55.902;13.606;2023-02-13T04:56:58;102351.84;;;0.59;83.79
49709;BME280;35601;55.902;13.606;2023-02-13T04:59:23;102353.95;;;0.87;83.38
49709;BME280;35601;55.902;13.606;2023-02-13T05:01:49;102350.17;;;0.87;83.27
49709;BME280;35601;55.902;13.606;2023-02-13T05:04:14;102349.46;;;0.86;83.09
49709;BME280;35601;55.902;13.606;2023-02-13T05:06:40;102343.03;;;0.80;83.36
49709;BME280;35601;55.902;13.606;2023-02-13T05:09:05;102343.56;;;0.86;82.95
49709;BME280;35601;55.902;13.606;2023-02-13T05:11:30;102340.26;;;0.41;82.67
49709;BME280;35601;55.902;13.606;2023-02-13T05:13:55;102338.94;;;0.90;82.04
49709;BME280;35601;55.902;13.606;2023-02-13T05:16:21;102339.38;;;0.84;81.10
49709;BME280;35601;55.902;13.606;2023-02-13T05:18:46;102343.66;;;0.56;79.81
49709;BME280;35601;55.902;13.606;2023-02-13T05:21:11;102345.42;;;0.82;79.77
49709;BME280;35601;55.902;13.606;2023-02-13T05:23:37;102338.49;;;0.58;80.20
49709;BME280;35601;55.902;13.606;2023-02-13T05:26:02;102337.53;;;0.76;80.97
49709;BME280;35601;55.902;13.606;2023-02-13T05:28:27;102333.82;;;0.55;80.69
49709;BME280;35601;55.902;13.606;2023-02-13T05:30:53;102332.32;;;0.77;80.35
49709;BME280;35601;55.902;13.606;2023-02-13T05:33:19;102328.03;;;0.77;80.89
49709;BME280;35601;55.902;13.606;2023-02-13T05:35:46;102328.23;;;-0.23;81.35
49709;BME280;35601;55.902;13.606;2023-02-13T05:38:10;102328.28;;;0.35;80.41
49709;BME280;35601;55.902;13.606;2023-02-13T05:40:36;102334.53;;;0.84;80.57
49709;BME280;35601;55.902;13.606;2023-02-13T05:43:01;102335.28;;;0.29;80.76
49709;BME280;35601;55.902;13.606;2023-02-13T05:45:26;102335.74;;;0.24;81.44
49709;BME280;35601;55.902;13.606;2023-02-13T05:47:52;102332.96;;;0.73;81.42
49709;BME280;35601;55.902;13.606;2023-02-13T05:50:18;102338.39;;;0.73;80.78
49709;BME280;35601;55.902;13.606;2023-02-13T05:52:43;102336.42;;;0.74;80.63
49709;BME280;35601;55.902;13.606;2023-02-13T05:55:08;102344.18;;;0.44;80.73
49709;BME280;35601;55.902;13.606;2023-02-13T05:57:34;102351.92;;;0.44;80.53
49709;BME280;35601;55.902;13.606;2023-02-13T06:00:00;102357.33;;;0.71;80.05
49709;BME280;35601;55.902;13.606;2023-02-13T06:02:26;102359.81;;;0.71;79.39
49709;BME280;35601;55.902;13.606;2023-02-13T06:04:52;102357.89;;;0.51;79.08
49709;BME280;35601;55.902;13.606;2023-02-13T06:07:18;102354.82;;;0.51;79.05
49709;BME280;35601;55.902;13.606;2023-02-13T06:09:43;102356.83;;;0.72;79.18
49709;BME280;35601;55.902;13.606;2023-02-13T06:12:08;102360.34;;;0.70;79.35
49709;BME280;35601;55.902;13.606;2023-02-13T06:14:34;102363.07;;;0.70;78.88
49709;BME280;35601;55.902;13.606;2023-02-13T06:17:00;102361.19;;;0.22;78.91
49709;BME280;35601;55.902;13.606;2023-02-13T06:19:25;102363.77;;;0.73;78.73
49709;BME280;35601;55.902;13.606;2023-02-13T06:21:50;102364.16;;;0.74;78.37
49709;BME280;35601;55.902;13.606;2023-02-13T06:24:15;102365.12;;;0.43;77.76
49709;BME280;35601;55.902;13.606;2023-02-13T06:26:41;102369.39;;;0.59;77.38
49709;BME280;35601;55.902;13.606;2023-02-13T06:29:06;102370.19;;;0.59;77.36
49709;BME280;35601;55.902;13.606;2023-02-13T06:31:31;102376.24;;;0.54;77.45
49709;BME280;35601;55.902;13.606;2023-02-13T06:33:57;102377.69;;;0.44;78.41
49709;BME280;35601;55.902;13.606;2023-02-13T06:36:22;102379.81;;;0.46;78.30
49709;BME280;35601;55.902;13.606;2023-02-13T06:38:48;102385.48;;;0.44;77.73
49709;BME280;35601;55.902;13.606;2023-02-13T06:41:13;102387.94;;;0.64;77.66
49709;BME280;35601;55.902;13.606;2023-02-13T06:43:39;102391.06;;;0.34;77.51
49709;BME280;35601;55.902;13.606;2023-02-13T06:46:04;102395.16;;;0.36;77.58
49709;BME280;35601;55.902;13.606;2023-02-13T06:48:29;102397.87;;;0.57;77.92
49709;BME280;35601;55.902;13.606;2023-02-13T06:50:55;102394.35;;;0.38;78.09
49709;BME280;35601;55.902;13.606;2023-02-13T06:53:20;102397.65;;;0.36;78.13
49709;BME280;35601;55.902;13.606;2023-02-13T06:55:46;102392.60;;;0.39;77.92
49709;BME280;35601;55.902;13.606;2023-02-13T06:58:11;102393.34;;;0.42;77.96
49709;BME280;35601;55.902;13.606;2023-02-13T07:00:36;102395.32;;;0.44;77.71
49709;BME280;35601;55.902;13.606;2023-02-13T07:03:04;102396.80;;;0.43;77.11
49709;BME280;35601;55.902;13.606;2023-02-13T07:05:27;102394.40;;;0.41;76.50
49709;BME280;35601;55.902;13.606;2023-02-13T07:07:53;102393.69;;;0.43;76.60
49709;BME280;35601;55.902;13.606;2023-02-13T07:10:18;102399.26;;;0.21;76.35
49709;BME280;35601;55.902;13.606;2023-02-13T07:12:43;102399.60;;;0.04;76.41
49709;BME280;35601;55.902;13.606;2023-02-13T07:15:09;102398.42;;;0.13;76.45
49709;BME280;35601;55.902;13.606;2023-02-13T07:17:34;102397.69;;;0.15;76.44
49709;BME280;35601;55.902;13.606;2023-02-13T07:19:59;102401.57;;;0.15;76.40
49709;BME280;35601;55.902;13.606;2023-02-13T07:22:25;102402.57;;;0.14;76.31
49709;BME280;35601;55.902;13.606;2023-02-13T07:24:50;102407.16;;;0.18;76.14
49709;BME280;35601;55.902;13.606;2023-02-13T07:27:15;102409.01;;;0.22;76.41
49709;BME280;35601;55.902;13.606;2023-02-13T07:29:40;102413.59;;;0.23;76.95
49709;BME280;35601;55.902;13.606;2023-02-13T07:32:06;102413.38;;;0.23;78.50
49709;BME280;35601;55.902;13.606;2023-02-13T07:34:31;102412.30;;;0.26;78.40
49709;BME280;35601;55.902;13.606;2023-02-13T07:36:56;102414.13;;;0.29;78.36
49709;BME280;35601;55.902;13.606;2023-02-13T07:39:21;102416.53;;;0.28;78.70
49709;BME280;35601;55.902;13.606;2023-02-13T07:41:47;102411.78;;;0.33;78.88
49709;BME280;35601;55.902;13.606;2023-02-13T07:44:12;102410.60;;;0.36;79.43
49709;BME280;35601;55.902;13.606;2023-02-13T07:46:37;102415.93;;;0.49;79.61
49709;BME280;35601;55.902;13.606;2023-02-13T07:49:03;102408.59;;;0.60;79.80
49709;BME280;35601;55.902;13.606;2023-02-13T07:51:28;102407.96;;;0.69;80.02
49709;BME280;35601;55.902;13.606;2023-02-13T07:53:54;102413.87;;;0.82;80.02
49709;BME280;35601;55.902;13.606;2023-02-13T07:56:19;102409.36;;;0.95;79.82
49709;BME280;35601;55.902;13.606;2023-02-13T07:58:45;102402.54;;;1.06;78.99
49709;BME280;35601;55.902;13.606;2023-02-13T08:01:13;102393.60;;;1.42;78.00
49709;BME280;35601;55.902;13.606;2023-02-13T08:03:35;102390.26;;;1.18;77.29
49709;BME280;35601;55.902;13.606;2023-02-13T08:06:01;102381.44;;;1.28;77.42
49709;BME280;35601;55.902;13.606;2023-02-13T08:08:26;102382.79;;;1.29;77.39
49709;BME280;35601;55.902;13.606;2023-02-13T08:10:51;102382.14;;;1.49;77.06
49709;BME280;35601;55.902;13.606;2023-02-13T08:13:17;102379.75;;;1.65;76.88
49709;BME280;35601;55.902;13.606;2023-02-13T08:15:42;102369.88;;;1.66;76.85
49709;BME280;35601;55.902;13.606;2023-02-13T08:18:08;102381.83;;;2.05;75.88
49709;BME280;35601;55.902;13.606;2023-02-13T08:20:34;102382.45;;;2.30;75.42
49709;BME280;35601;55.902;13.606;2023-02-13T08:23:02;102380.42;;;1.83;74.84
49709;BME280;35601;55.902;13.606;2023-02-13T08:25:24;102378.47;;;1.99;74.41
49709;BME280;35601;55.902;13.606;2023-02-13T08:27:50;102370.96;;;2.09;73.98
49709;BME280;35601;55.902;13.606;2023-02-13T08:32:41;102372.98;;;2.32;73.64
49709;BME280;35601;55.902;13.606;2023-02-13T08:35:06;102377.71;;;2.46;73.54
49709;BME280;35601;55.902;13.606;2023-02-13T08:37:31;102377.26;;;2.65;73.47
49709;BME280;35601;55.902;13.606;2023-02-13T08:39:56;102374.40;;;2.29;73.10
49709;BME280;35601;55.902;13.606;2023-02-13T08:42:21;102380.70;;;2.37;73.36
49709;BME280;35601;55.902;13.606;2023-02-13T08:44:47;102386.25;;;2.59;72.95
49709;BME280;35601;55.902;13.606;2023-02-13T08:47:12;102386.59;;;2.69;72.49
49709;BME280;35601;55.902;13.606;2023-02-13T08:49:37;102384.33;;;2.65;72.46
49709;BME280;35601;55.902;13.606;2023-02-13T08:52:03;102386.07;;;2.75;71.84
49709;BME280;35601;55.902;13.606;2023-02-13T08:54:29;102391.47;;;2.90;71.92
49709;BME280;35601;55.902;13.606;2023-02-13T08:56:54;102393.52;;;2.99;71.83
49709;BME280;35601;55.902;13.606;2023-02-13T08:59:19;102388.09;;;3.10;71.24
49709;BME280;35601;55.902;13.606;2023-02-13T09:01:45;102390.03;;;3.10;71.13
49709;BME280;35601;55.902;13.606;2023-02-13T09:04:10;102388.07;;;2.89;71.80
49709;BME280;35601;55.902;13.606;2023-02-13T09:06:35;102387.35;;;2.88;71.58
49709;BME280;35601;55.902;13.606;2023-02-13T09:09:00;102388.43;;;3.21;70.62
49709;BME280;35601;55.902;13.606;2023-02-13T09:11:26;102378.90;;;3.43;70.43
49709;BME280;35601;55.902;13.606;2023-02-13T09:13:52;102377.80;;;3.51;70.02
49709;BME280;35601;55.902;13.606;2023-02-13T09:16:16;102375.54;;;3.79;69.07
49709;BME280;35601;55.902;13.606;2023-02-13T09:18:41;102378.45;;;3.44;68.33
49709;BME280;35601;55.902;13.606;2023-02-13T09:21:10;102384.88;;;3.72;68.99
49709;BME280;35601;55.902;13.606;2023-02-13T09:23:33;102377.66;;;3.57;68.58
49709;BME280;35601;55.902;13.606;2023-02-13T09:25:58;102381.31;;;3.77;68.49
49709;BME280;35601;55.902;13.606;2023-02-13T09:28:22;102391.75;;;3.67;67.43
49709;BME280;35601;55.902;13.606;2023-02-13T09:30:48;102395.67;;;3.88;67.43
49709;BME280;35601;55.902;13.606;2023-02-13T09:33:13;102395.51;;;4.12;67.57
49709;BME280;35601;55.902;13.606;2023-02-13T09:35:39;102412.82;;;4.16;66.48
49709;BME280;35601;55.902;13.606;2023-02-13T09:38:04;102406.68;;;3.99;66.64
49709;BME280;35601;55.902;13.606;2023-02-13T09:40:36;102414.50;;;4.29;66.04
49709;BME280;35601;55.902;13.606;2023-02-13T09:43:04;102420.63;;;4.59;65.96
49709;BME280;35601;55.902;13.606;2023-02-13T09:45:21;102420.10;;;4.37;65.35
49709;BME280;35601;55.902;13.606;2023-02-13T09:47:46;102430.70;;;4.76;64.45
49709;BME280;35601;55.902;13.606;2023-02-13T09:50:14;102433.35;;;4.62;64.77
49709;BME280;35601;55.902;13.606;2023-02-13T09:52:37;102432.00;;;4.91;64.36
49709;BME280;35601;55.902;13.606;2023-02-13T09:55:05;102421.79;;;4.60;63.83
49709;BME280;35601;55.902;13.606;2023-02-13T09:57:32;102413.74;;;4.54;63.07
49709;BME280;35601;55.902;13.606;2023-02-13T09:59:59;102420.63;;;4.57;63.60
49709;BME280;35601;55.902;13.606;2023-02-13T10:02:30;102418.97;;;5.32;62.90
49709;BME280;35601;55.902;13.606;2023-02-13T10:04:48;102428.45;;;5.12;62.28
49709;BME280;35601;55.902;13.606;2023-02-13T10:07:16;102434.30;;;5.43;61.67
49709;BME280;35601;55.902;13.606;2023-02-13T10:09:39;102433.28;;;5.44;60.48
49709;BME280;35601;55.902;13.606;2023-02-13T10:12:14;102443.46;;;5.34;61.10
49709;BME280;35601;55.902;13.606;2023-02-13T10:14:29;102435.02;;;5.36;61.05
49709;BME280;35601;55.902;13.606;2023-02-13T10:16:53;102430.90;;;5.16;60.45
49709;BME280;35601;55.902;13.606;2023-02-13T10:19:25;102441.22;;;5.31;61.40
49709;BME280;35601;55.902;13.606;2023-02-13T10:21:44;102442.15;;;5.46;61.06
49709;BME280;35601;55.902;13.606;2023-02-13T10:24:09;102445.28;;;5.41;60.92
49709;BME280;35601;55.902;13.606;2023-02-13T10:26:32;102441.42;;;5.69;61.21
49709;BME280;35601;55.902;13.606;2023-02-13T10:28:59;102430.93;;;5.40;60.83
49709;BME280;35601;55.902;13.606;2023-02-13T10:31:22;102448.44;;;5.60;61.38
49709;BME280;35601;55.902;13.606;2023-02-13T10:33:49;102449.03;;;5.14;61.92
49709;BME280;35601;55.902;13.606;2023-02-13T10:36:18;102446.07;;;5.25;62.45
49709;BME280;35601;55.902;13.606;2023-02-13T10:38:41;102437.19;;;5.14;63.01
49709;BME280;35601;55.902;13.606;2023-02-13T10:41:05;102431.33;;;5.44;62.67
49709;BME280;35601;55.902;13.606;2023-02-13T10:43:31;102428.36;;;5.40;62.65
49709;BME280;35601;55.902;13.606;2023-02-13T10:45:59;102425.53;;;5.43;61.66
49709;BME280;35601;55.902;13.606;2023-02-13T10:48:30;102428.66;;;5.41;61.40
49709;BME280;35601;55.902;13.606;2023-02-13T10:50:52;102425.61;;;5.38;62.27
49709;BME280;35601;55.902;13.606;2023-02-13T10:53:15;102428.40;;;5.09;62.39
49709;BME280;35601;55.902;13.606;2023-02-13T10:55:50;102428.08;;;5.77;61.93
49709;BME280;35601;55.902;13.606;2023-02-13T10:58:06;102421.35;;;5.54;61.36
49709;BME280;35601;55.902;13.606;2023-02-13T11:00:30;102407.41;;;5.24;61.30
49709;BME280;35601;55.902;13.606;2023-02-13T11:02:50;102409.49;;;5.86;61.05
49709;BME280;35601;55.902;13.606;2023-02-13T11:05:18;102413.79;;;5.34;62.21
49709;BME280;35601;55.902;13.606;2023-02-13T11:07:41;102392.92;;;5.38;61.27
49709;BME280;35601;55.902;13.606;2023-02-13T11:10:14;102390.06;;;5.64;61.04
49709;BME280;35601;55.902;13.606;2023-02-13T11:12:32;102388.23;;;5.64;60.59
49709;BME280;35601;55.902;13.606;2023-02-13T11:14:58;102393.87;;;5.32;60.20
49709;BME280;35601;55.902;13.606;2023-02-13T11:17:22;102405.10;;;5.51;60.18
49709;BME280;35601;55.902;13.606;2023-02-13T11:19:48;102406.68;;;5.47;61.48
49709;BME280;35601;55.902;13.606;2023-02-13T11:22:15;102389.32;;;5.43;59.84
49709;BME280;35601;55.902;13.606;2023-02-13T11:24:39;102382.70;;;5.53;59.88
49709;BME280;35601;55.902;13.606;2023-02-13T11:27:05;102388.55;;;5.99;60.33
49709;BME280;35601;55.902;13.606;2023-02-13T11:29:29;102389.16;;;5.44;60.24
49709;BME280;35601;55.902;13.606;2023-02-13T11:32:14;102379.29;;;6.05;58.98
49709;BME280;35601;55.902;13.606;2023-02-13T11:34:24;102374.99;;;6.56;58.48
49709;BME280;35601;55.902;13.606;2023-02-13T11:36:43;102371.01;;;6.50;57.01
49709;BME280;35601;55.902;13.606;2023-02-13T11:39:18;102371.51;;;6.60;56.97
49709;BME280;35601;55.902;13.606;2023-02-13T11:41:39;102379.90;;;6.52;55.79
49709;BME280;35601;55.902;13.606;2023-02-13T11:44:00;102382.55;;;7.07;55.53
49709;BME280;35601;55.902;13.606;2023-02-13T11:46:26;102393.58;;;7.05;54.71
49709;BME280;35601;55.902;13.606;2023-02-13T11:48:57;102395.59;;;6.83;54.19
49709;BME280;35601;55.902;13.606;2023-02-13T11:51:15;102394.98;;;6.73;53.90
49709;BME280;35601;55.902;13.606;2023-02-13T11:53:40;102396.03;;;6.64;53.75
49709;BME280;35601;55.902;13.606;2023-02-13T11:56:09;102404.37;;;6.55;55.43
49709;BME280;35601;55.902;13.606;2023-02-13T11:58:30;102407.58;;;6.61;54.76
49709;BME280;35601;55.902;13.606;2023-02-13T12:01:08;102408.13;;;6.63;55.89
49709;BME280;35601;55.902;13.606;2023-02-13T12:03:26;102417.60;;;6.60;55.26
49709;BME280;35601;55.902;13.606;2023-02-13T12:05:58;102407.81;;;6.44;54.08
49709;BME280;35601;55.902;13.606;2023-02-13T12:08:11;102414.83;;;6.29;54.69
49709;BME280;35601;55.902;13.606;2023-02-13T12:10:37;102410.97;;;6.48;54.72
49709;BME280;35601;55.902;13.606;2023-02-13T12:13:05;102414.67;;;6.57;54.03
49709;BME280;35601;55.902;13.606;2023-02-13T12:15:29;102414.90;;;6.84;54.76
49709;BME280;35601;55.902;13.606;2023-02-13T12:18:02;102413.65;;;6.37;55.33
49709;BME280;35601;55.902;13.606;2023-02-13T12:20:17;102418.93;;;6.26;55.25
49709;BME280;35601;55.902;13.606;2023-02-13T12:22:53;102416.33;;;5.76;56.88
49709;BME280;35601;55.902;13.606;2023-02-13T12:25:20;102419.87;;;5.58;57.33
49709;BME280;35601;55.902;13.606;2023-02-13T12:27:39;102424.69;;;5.69;58.03
49709;BME280;35601;55.902;13.606;2023-02-13T12:32:29;102423.06;;;5.46;58.15
49709;BME280;35601;55.902;13.606;2023-02-13T12:35:02;102425.44;;;5.80;58.77
49709;BME280;35601;55.902;13.606;2023-02-13T12:37:22;102415.35;;;5.64;58.19
49709;BME280;35601;55.902;13.606;2023-02-13T12:39:42;102423.44;;;6.07;58.06
49709;BME280;35601;55.902;13.606;2023-02-13T12:42:18;102412.99;;;5.57;58.43
49709;BME280;35601;55.902;13.606;2023-02-13T12:47:02;102416.50;;;5.53;60.39
49709;BME280;35601;55.902;13.606;2023-02-13T12:51:49;102422.32;;;5.25;60.94
49709;BME280;35601;55.902;13.606;2023-02-13T12:54:29;102416.03;;;5.32;61.07